Hier eine tabellarische Übersicht über die aktuellen Wetterdaten des 07.04.2020.

Datum Zeit 2m Temperatur
in °C
2m Feuchtigkeit
in %
2m Taupunkt
in °C
5cm Temperatur
in °C
Helligkeit
in kLux
Sonnenscheindauer
in hh:mm
Windgeschwindigkeit
in km/h
Windrichtung
in °
Regen
in l/m²
07.04.2020 --- 00:00 9.0 60.1 1.7 4.3 0.000 0.5 120.0 0.0
07.04.2020 --- 00:03 8.9 60.8 1.8 4.3 0.000 6.6 165.0 0.0
07.04.2020 --- 00:06 9.1 60.9 2.0 4.5 0.000 5.4 165.0 0.0
07.04.2020 --- 00:09 9.1 60.9 2.0 4.5 0.000 7.5 165.0 0.0
07.04.2020 --- 00:12 10.2 56.2 1.9 4.5 0.000 5.0 170.0 0.0
07.04.2020 --- 00:15 10.4 55.4 1.9 4.5 0.000 5.4 170.0 0.0
07.04.2020 --- 00:18 10.5 54.9 1.8 4.5 0.000 4.2 170.0 0.0
07.04.2020 --- 00:21 10.6 54.7 1.9 4.5 0.000 4.8 170.0 0.0
07.04.2020 --- 00:24 10.6 54.7 1.9 4.5 0.000 6.1 150.0 0.0
07.04.2020 --- 00:27 10.6 54.6 1.8 4.5 0.000 4.6 150.0 0.0
07.04.2020 --- 00:30 10.6 54.6 1.8 4.4 0.000 5.1 150.0 0.0
07.04.2020 --- 00:33 10.6 54.6 1.8 4.4 0.000 6.7 155.0 0.0
07.04.2020 --- 00:36 10.3 55.6 1.8 4.3 0.000 4.6 175.0 0.0
07.04.2020 --- 00:39 10.2 56.3 1.9 4.3 0.000 3.7 175.0 0.0
07.04.2020 --- 00:42 10.1 56.1 1.8 4.3 0.000 5.9 160.0 0.0
07.04.2020 --- 00:45 10.0 56.9 1.9 4.3 0.000 5.4 160.0 0.0
07.04.2020 --- 00:48 9.9 56.6 1.7 4.2 0.000 4.6 160.0 0.0
07.04.2020 --- 00:51 9.9 56.6 1.7 4.1 0.000 3.8 160.0 0.0
07.04.2020 --- 00:54 9.8 56.9 1.7 4.1 0.000 5.7 160.0 0.0
07.04.2020 --- 00:57 9.7 56.8 1.6 4.1 0.000 5.4 160.0 0.0
07.04.2020 --- 01:00 9.7 57.0 1.6 4.1 0.000 4.8 160.0 0.0
07.04.2020 --- 01:03 9.7 57.0 1.6 4.1 0.000 4.8 160.0 0.0
07.04.2020 --- 01:06 9.6 57.1 1.5 4.1 0.000 5.5 160.0 0.0
07.04.2020 --- 01:09 9.6 57.2 1.6 4.0 0.000 6.1 160.0 0.0
07.04.2020 --- 01:12 9.6 57.4 1.6 4.0 0.000 5.7 160.0 0.0
07.04.2020 --- 01:15 9.6 57.6 1.7 3.9 0.000 5.3 160.0 0.0
07.04.2020 --- 01:18 9.6 57.6 1.7 3.8 0.000 5.8 135.0 0.0
07.04.2020 --- 01:21 9.4 58.2 1.6 3.9 0.000 7.0 130.0 0.0
07.04.2020 --- 01:24 9.3 58.5 1.6 3.9 0.000 6.3 130.0 0.0
07.04.2020 --- 01:27 9.2 59.1 1.6 3.8 0.000 6.7 135.0 0.0
07.04.2020 --- 01:30 9.1 59.2 1.6 3.8 0.000 6.7 135.0 0.0
07.04.2020 --- 01:33 9.1 59.6 1.7 3.6 0.000 7.1 135.0 0.0
07.04.2020 --- 01:36 9.1 59.2 1.6 3.6 0.000 6.5 135.0 0.0
07.04.2020 --- 01:39 9.1 59.2 1.6 3.6 0.000 6.5 135.0 0.0
07.04.2020 --- 01:42 9.1 59.2 1.6 3.6 0.000 6.0 135.0 0.0
07.04.2020 --- 01:45 9.1 59.2 1.6 3.6 0.000 7.2 140.0 0.0
07.04.2020 --- 01:48 9.1 59.2 1.6 3.6 0.000 6.8 150.0 0.0
07.04.2020 --- 01:51 9.0 59.6 1.6 3.6 0.000 7.2 150.0 0.0
07.04.2020 --- 01:54 9.0 59.6 1.6 3.6 0.000 6.5 150.0 0.0
07.04.2020 --- 01:57 9.1 59.4 1.6 3.6 0.000 6.0 150.0 0.0
07.04.2020 --- 02:00 9.1 59.3 1.6 3.6 0.000 5.6 150.0 0.0
07.04.2020 --- 02:03 9.1 59.3 1.6 3.5 0.000 5.9 150.0 0.0
07.04.2020 --- 02:06 9.1 59.3 1.6 3.5 0.000 5.6 150.0 0.0
07.04.2020 --- 02:09 9.0 59.3 1.5 3.4 0.000 4.6 150.0 0.0
07.04.2020 --- 02:12 8.8 60.2 1.5 3.5 0.000 4.6 150.0 0.0
07.04.2020 --- 02:15 8.8 60.2 1.5 3.5 0.000 4.8 150.0 0.0
07.04.2020 --- 02:18 8.3 61.6 1.4 3.5 0.000 4.6 150.0 0.0
07.04.2020 --- 02:21 8.3 61.6 1.4 3.2 0.000 5.0 150.0 0.0
07.04.2020 --- 02:24 8.3 61.6 1.4 3.0 0.000 5.2 150.0 0.0
07.04.2020 --- 02:27 7.6 64.5 1.3 2.9 0.000 4.2 150.0 0.0
07.04.2020 --- 02:30 7.4 65.4 1.3 2.9 0.000 3.9 165.0 0.0
07.04.2020 --- 02:33 7.1 66.3 1.3 2.8 0.000 3.0 165.0 0.0
07.04.2020 --- 02:36 6.9 67.0 1.2 2.9 0.000 4.0 165.0 0.0
07.04.2020 --- 02:39 6.7 67.7 1.2 2.9 0.000 3.3 165.0 0.0
07.04.2020 --- 02:42 6.6 68.3 1.2 3.0 0.000 4.0 165.0 0.0
07.04.2020 --- 02:45 6.5 68.9 1.2 2.7 0.000 4.2 165.0 0.0
07.04.2020 --- 02:48 6.4 69.3 1.2 2.7 0.000 3.5 165.0 0.0
07.04.2020 --- 02:51 6.3 69.3 1.1 2.6 0.000 4.0 165.0 0.0
07.04.2020 --- 02:54 6.2 69.4 1.0 2.5 0.000 5.2 165.0 0.0
07.04.2020 --- 02:57 6.0 69.8 0.9 2.5 0.000 2.5 165.0 0.0
07.04.2020 --- 03:00 5.9 70.3 0.9 2.3 0.000 0.6 165.0 0.0
07.04.2020 --- 03:03 5.9 70.3 0.9 2.3 0.000 2.9 165.0 0.0
07.04.2020 --- 03:06 5.9 70.4 0.9 2.4 0.000 3.5 165.0 0.0
07.04.2020 --- 03:09 5.9 70.4 0.9 2.5 0.000 3.3 165.0 0.0
07.04.2020 --- 03:12 5.9 70.4 0.9 2.4 0.000 3.7 165.0 0.0
07.04.2020 --- 03:15 5.8 70.5 0.9 2.3 0.000 2.8 165.0 0.0
07.04.2020 --- 03:18 5.7 70.8 0.8 2.3 0.000 1.2 165.0 0.0
07.04.2020 --- 03:21 5.7 70.8 0.8 2.2 0.000 1.4 165.0 0.0
07.04.2020 --- 03:24 5.6 71.2 0.8 2.2 0.000 3.4 165.0 0.0
07.04.2020 --- 03:27 5.6 71.8 0.9 2.2 0.000 0.3 165.0 0.0
07.04.2020 --- 03:30 5.6 71.8 0.9 2.1 0.000 0.3 165.0 0.0
07.04.2020 --- 03:33 5.5 71.6 0.8 2.1 0.000 1.0 165.0 0.0
07.04.2020 --- 03:36 5.5 71.9 0.8 2.1 0.000 0.0 165.0 0.0
07.04.2020 --- 03:39 5.4 71.7 0.7 2.2 0.000 0.3 165.0 0.0
07.04.2020 --- 03:42 5.4 71.7 0.7 2.2 0.000 0.0 165.0 0.0
07.04.2020 --- 03:45 5.5 71.9 0.8 2.0 0.000 0.0 165.0 0.0
07.04.2020 --- 03:48 5.5 71.8 0.8 2.0 0.000 0.0 165.0 0.0
07.04.2020 --- 03:51 5.6 71.9 0.9 2.0 0.000 0.0 165.0 0.0
07.04.2020 --- 03:54 5.5 72.1 0.9 2.3 0.000 0.1 165.0 0.0
07.04.2020 --- 03:57 5.5 72.4 0.9 2.3 0.000 0.8 165.0 0.0
07.04.2020 --- 04:00 5.4 72.7 0.9 2.2 0.000 1.8 165.0 0.0
07.04.2020 --- 04:03 5.5 72.4 0.9 2.1 0.000 3.7 165.0 0.0
07.04.2020 --- 04:06 5.4 72.0 0.8 2.2 0.000 1.7 165.0 0.0
07.04.2020 --- 04:09 5.4 72.0 0.8 2.1 0.000 0.0 165.0 0.0
07.04.2020 --- 04:12 5.4 72.2 0.8 2.1 0.000 0.0 165.0 0.0
07.04.2020 --- 04:15 5.4 72.5 0.9 2.1 0.000 0.0 165.0 0.0
07.04.2020 --- 04:18 5.4 72.5 0.9 2.1 0.000 2.3 165.0 0.0
07.04.2020 --- 04:21 5.4 72.5 0.9 2.3 0.000 0.1 165.0 0.0
07.04.2020 --- 04:24 5.4 72.5 0.9 2.3 0.000 0.0 165.0 0.0
07.04.2020 --- 04:27 5.3 72.9 0.8 2.3 0.000 0.7 165.0 0.0
07.04.2020 --- 04:30 5.2 72.6 0.7 2.0 0.000 0.0 165.0 0.0
07.04.2020 --- 04:33 5.2 72.6 0.7 2.2 0.000 0.0 165.0 0.0
07.04.2020 --- 04:36 5.1 73.0 0.7 2.0 0.000 0.9 165.0 0.0
07.04.2020 --- 04:39 5.1 73.0 0.7 1.9 0.000 0.1 165.0 0.0
07.04.2020 --- 04:42 5.0 73.4 0.6 1.9 0.000 0.0 165.0 0.0
07.04.2020 --- 04:45 4.9 73.3 0.5 2.0 0.000 0.0 165.0 0.0
07.04.2020 --- 04:48 4.9 73.6 0.6 2.0 0.000 0.0 165.0 0.0
07.04.2020 --- 04:51 4.8 73.7 0.5 2.0 0.000 3.6 165.0 0.0
07.04.2020 --- 04:54 4.7 74.1 0.5 1.9 0.000 1.3 165.0 0.0
07.04.2020 --- 04:57 4.6 74.2 0.4 1.9 0.000 0.0 165.0 0.0
07.04.2020 --- 05:00 4.7 74.4 0.5 1.6 0.000 0.0 165.0 0.0
07.04.2020 --- 05:03 4.7 74.4 0.5 1.6 0.000 0.0 165.0 0.0
07.04.2020 --- 05:06 4.7 73.9 0.5 1.6 0.000 0.0 165.0 0.0
07.04.2020 --- 05:09 4.7 73.9 0.5 1.6 0.000 0.0 165.0 0.0
07.04.2020 --- 05:12 4.7 74.3 0.5 1.9 0.000 0.0 165.0 0.0
07.04.2020 --- 05:15 4.6 74.5 0.5 1.7 0.000 0.0 165.0 0.0
07.04.2020 --- 05:18 4.6 74.3 0.4 1.5 0.000 0.0 165.0 0.0
07.04.2020 --- 05:21 4.6 74.5 0.5 1.7 0.000 0.0 165.0 0.0
07.04.2020 --- 05:24 4.6 74.7 0.5 1.8 0.000 0.0 165.0 0.0
07.04.2020 --- 05:27 4.5 75.0 0.5 1.8 0.000 0.0 165.0 0.0
07.04.2020 --- 05:30 4.5 75.3 0.5 1.9 0.000 0.0 165.0 0.0
07.04.2020 --- 05:33 4.5 75.3 0.5 1.7 0.000 0.0 165.0 0.0
07.04.2020 --- 05:36 4.5 75.1 0.5 1.7 0.000 0.0 165.0 0.0
07.04.2020 --- 05:39 4.5 75.4 0.5 1.6 0.000 0.0 165.0 0.0
07.04.2020 --- 05:42 4.5 75.4 0.5 1.6 0.000 0.0 165.0 0.0
07.04.2020 --- 05:45 4.4 75.3 0.4 1.7 0.000 0.0 165.0 0.0
07.04.2020 --- 05:48 4.3 74.9 0.3 1.6 0.000 0.0 165.0 0.0
07.04.2020 --- 05:51 4.3 75.2 0.3 1.6 0.000 0.0 165.0 0.0
07.04.2020 --- 05:54 4.3 75.2 0.3 1.5 0.000 0.0 165.0 0.0
07.04.2020 --- 05:57 4.3 75.2 0.3 1.5 0.000 0.0 165.0 0.0
07.04.2020 --- 06:00 4.3 75.5 0.4 1.5 0.035 0.0 165.0 0.0
07.04.2020 --- 06:03 4.3 75.3 0.3 1.3 0.050 0.0 160.0 0.0
07.04.2020 --- 06:06 4.3 75.4 0.3 1.5 0.101 0.0 165.0 0.0
07.04.2020 --- 06:09 4.3 75.4 0.3 1.4 0.139 0.1 165.0 0.0
07.04.2020 --- 06:12 4.3 75.4 0.3 1.5 0.139 3.5 165.0 0.0
07.04.2020 --- 06:15 4.3 75.5 0.4 1.6 0.200 4.8 175.0 0.0
07.04.2020 --- 06:18 4.6 75.2 0.6 1.6 0.316 5.2 205.0 0.0
07.04.2020 --- 06:21 5.1 73.6 0.8 1.6 0.400 5.8 215.0 0.0
07.04.2020 --- 06:24 5.1 73.6 0.8 1.7 0.502 7.3 225.0 0.0
07.04.2020 --- 06:27 5.5 72.5 1.0 1.9 0.502 6.4 215.0 0.0
07.04.2020 --- 06:30 6.1 70.9 1.2 2.1 0.502 00:00 8.2 235.0 0.0
07.04.2020 --- 06:33 6.6 69.0 1.3 2.5 1.200 00:00 8.9 235.0 0.0
07.04.2020 --- 06:36 7.1 67.5 1.5 2.6 1.470 00:03 9.3 215.0 0.0
07.04.2020 --- 06:39 7.4 66.6 1.6 2.8 1.800 00:06 10.8 220.0 0.0
07.04.2020 --- 06:42 7.7 64.8 1.5 2.8 2.210 00:09 9.7 220.0 0.0
07.04.2020 --- 06:45 7.9 64.2 1.6 3.1 2.660 00:12 10.8 235.0 0.0
07.04.2020 --- 06:48 8.0 63.8 1.6 3.1 3.760 00:15 7.2 235.0 0.0
07.04.2020 --- 06:51 8.0 63.6 1.5 3.1 3.760 00:18 7.8 235.0 0.0
07.04.2020 --- 06:54 8.1 63.8 1.7 3.3 4.950 00:21 6.4 230.0 0.0
07.04.2020 --- 06:57 8.1 63.8 1.7 3.3 5.500 00:24 7.2 235.0 0.0
07.04.2020 --- 07:00 8.2 63.4 1.7 3.3 6.180 00:27 8.3 250.0 0.0
07.04.2020 --- 07:03 8.2 63.4 1.7 3.5 6.840 00:30 7.3 245.0 0.0
07.04.2020 --- 07:06 8.2 63.3 1.7 3.6 7.610 00:33 7.3 240.0 0.0
07.04.2020 --- 07:09 8.2 63.3 1.7 3.6 7.610 00:36 5.7 240.0 0.0
07.04.2020 --- 07:12 8.2 63.3 1.7 3.8 9.580 00:39 6.5 240.0 0.0
07.04.2020 --- 07:15 8.2 63.3 1.7 3.8 10.200 00:42 4.8 240.0 0.0
07.04.2020 --- 07:18 8.3 63.4 1.8 3.9 10.900 00:45 3.6 240.0 0.0
07.04.2020 --- 07:21 8.4 63.2 1.8 4.0 11.500 00:48 4.7 240.0 0.0
07.04.2020 --- 07:24 8.5 63.0 1.9 4.0 12.200 00:51 6.3 240.0 0.0
07.04.2020 --- 07:27 8.7 62.6 2.0 4.3 12.800 00:54 5.5 245.0 0.0
07.04.2020 --- 07:30 9.0 61.9 2.1 4.6 13.600 00:57 7.2 275.0 0.0
07.04.2020 --- 07:33 9.3 61.5 2.3 5.1 14.900 01:00 7.4 255.0 0.0
07.04.2020 --- 07:36 9.5 61.3 2.4 5.1 15.700 01:03 9.0 250.0 0.0
07.04.2020 --- 07:39 9.9 60.9 2.7 6.7 16.400 01:06 7.8 245.0 0.0
07.04.2020 --- 07:42 9.9 60.9 2.7 8.2 17.000 01:08 6.8 240.0 0.0
07.04.2020 --- 07:45 10.1 60.4 2.8 9.0 17.600 01:11 10.5 245.0 0.0
07.04.2020 --- 07:48 10.3 59.9 2.9 9.8 18.200 01:15 10.8 245.0 0.0
07.04.2020 --- 07:51 10.5 58.8 2.8 9.6 18.700 01:18 10.8 245.0 0.0
07.04.2020 --- 07:54 10.6 58.9 2.9 8.8 19.900 01:21 11.2 260.0 0.0
07.04.2020 --- 07:57 10.8 58.1 2.9 9.0 20.500 01:23 12.1 230.0 0.0
07.04.2020 --- 08:00 11.0 58.1 3.1 9.4 21.200 01:26 12.3 225.0 0.0
07.04.2020 --- 08:03 11.1 57.8 3.1 9.4 21.600 01:30 11.2 215.0 0.0
07.04.2020 --- 08:06 11.2 57.8 3.2 11.6 22.400 01:33 13.4 205.0 0.0
07.04.2020 --- 08:09 11.4 57.5 3.3 11.6 23.100 01:36 14.6 235.0 0.0
07.04.2020 --- 08:12 11.4 57.5 3.3 13.8 23.700 01:38 12.0 25.0 0.0
07.04.2020 --- 08:15 11.7 55.8 3.2 13.8 24.900 01:42 14.2 215.0 0.0
07.04.2020 --- 08:18 11.8 56.4 3.4 14.4 25.500 01:45 10.3 205.0 0.0
07.04.2020 --- 08:21 11.8 56.4 3.4 14.9 26.300 01:48 10.9 215.0 0.0
07.04.2020 --- 08:24 12.0 55.6 3.4 15.6 26.900 01:51 10.6 225.0 0.0
07.04.2020 --- 08:27 12.1 56.6 3.8 16.0 26.900 01:53 10.0 225.0 0.0
07.04.2020 --- 08:30 12.2 54.8 3.4 16.3 27.900 01:57 11.0 235.0 0.0
07.04.2020 --- 08:33 12.4 55.1 3.6 16.6 27.900 02:00 13.2 220.0 0.0
07.04.2020 --- 08:36 12.6 54.2 3.6 16.6 30.200 02:02 14.5 210.0 0.0
07.04.2020 --- 08:39 12.6 54.2 3.6 17.6 30.900 02:06 11.9 215.0 0.0
07.04.2020 --- 08:42 12.6 54.2 3.6 17.8 31.500 02:08 17.3 235.0 0.0
07.04.2020 --- 08:45 13.1 53.8 4.0 18.4 32.400 02:12 14.1 225.0 0.0
07.04.2020 --- 08:48 13.1 53.8 4.0 18.8 32.800 02:15 18.1 255.0 0.0
07.04.2020 --- 08:51 13.3 52.6 3.8 18.8 33.600 02:17 18.1 255.0 0.0
07.04.2020 --- 08:54 13.4 52.5 3.9 18.8 34.200 02:21 12.1 240.0 0.0
07.04.2020 --- 08:57 13.5 52.7 4.0 19.1 35.000 02:23 12.1 240.0 0.0
07.04.2020 --- 09:00 13.5 52.7 4.0 18.6 36.000 02:27 13.6 210.0 0.0
07.04.2020 --- 09:03 13.5 52.7 4.0 18.5 36.000 02:30 14.3 210.0 0.0
07.04.2020 --- 09:06 13.5 52.7 4.0 19.5 37.100 02:32 15.0 225.0 0.0
07.04.2020 --- 09:09 13.9 52.6 4.4 19.5 37.500 02:36 15.0 225.0 0.0
07.04.2020 --- 09:12 14.1 54.1 5.0 21.0 38.000 02:38 11.0 220.0 0.0
07.04.2020 --- 09:15 14.1 51.4 4.2 21.0 38.700 02:42 11.0 220.0 0.0
07.04.2020 --- 09:18 14.2 51.1 4.2 21.5 38.700 02:45 14.7 235.0 0.0
07.04.2020 --- 09:21 14.3 51.5 4.5 21.8 40.300 02:47 10.8 205.0 0.0
07.04.2020 --- 09:24 14.4 51.2 4.5 22.1 41.100 02:51 15.0 220.0 0.0
07.04.2020 --- 09:27 14.4 51.2 4.5 22.4 41.300 02:53 11.5 215.0 0.0
07.04.2020 --- 09:30 14.7 50.5 4.5 23.1 41.800 02:57 13.0 235.0 0.0
07.04.2020 --- 09:33 14.7 50.5 4.5 23.8 42.500 03:00 12.3 225.0 0.0
07.04.2020 --- 09:36 15.3 50.8 5.2 23.8 42.500 03:02 10.6 245.0 0.0
07.04.2020 --- 09:39 15.3 50.8 5.2 24.1 44.000 03:06 14.3 250.0 0.0
07.04.2020 --- 09:42 15.3 50.8 5.2 23.9 44.400 03:08 14.6 240.0 0.0
07.04.2020 --- 09:45 15.5 50.0 5.1 24.5 44.900 03:12 9.4 250.0 0.0
07.04.2020 --- 09:48 15.6 48.5 4.8 25.3 45.500 03:15 15.3 260.0 0.0
07.04.2020 --- 09:51 15.6 49.9 5.2 25.3 45.900 03:17 16.8 260.0 0.0
07.04.2020 --- 09:54 15.8 49.4 5.2 25.5 45.600 03:21 16.2 260.0 0.0
07.04.2020 --- 09:57 15.9 49.5 5.4 25.5 46.800 03:23 16.2 260.0 0.0
07.04.2020 --- 10:00 15.7 49.9 5.3 26.1 47.700 03:27 20.3 270.0 0.0
07.04.2020 --- 10:03 15.7 50.2 5.4 26.2 48.200 03:30 20.3 270.0 0.0
07.04.2020 --- 10:06 15.7 50.2 5.4 26.2 48.500 03:32 17.2 270.0 0.0
07.04.2020 --- 10:09 16.0 51.1 5.9 27.7 49.000 03:36 12.2 285.0 0.0
07.04.2020 --- 10:12 16.1 49.6 5.6 28.1 48.700 03:38 15.0 260.0 0.0
07.04.2020 --- 10:15 16.3 50.5 6.0 28.1 50.100 03:42 10.3 250.0 0.0
07.04.2020 --- 10:18 16.4 49.5 5.8 28.1 50.100 03:45 20.0 295.0 0.0
07.04.2020 --- 10:21 16.4 49.5 5.8 27.6 51.200 03:47 15.0 280.0 0.0
07.04.2020 --- 10:24 16.4 48.4 5.5 26.9 51.700 03:51 20.0 265.0 0.0
07.04.2020 --- 10:27 16.4 48.4 5.5 26.7 52.100 03:53 20.0 265.0 0.0
07.04.2020 --- 10:30 16.7 49.2 6.0 26.2 52.300 03:57 13.3 300.0 0.0
07.04.2020 --- 10:33 17.0 49.4 6.3 26.2 52.900 04:00 19.3 300.0 0.0
07.04.2020 --- 10:36 17.1 47.7 5.9 21.6 53.200 04:02 16.6 330.0 0.0
07.04.2020 --- 10:39 17.2 48.6 6.3 21.3 53.200 04:05 14.6 315.0 0.0
07.04.2020 --- 10:42 17.3 47.0 5.9 24.2 54.500 04:09 20.1 295.0 0.0
07.04.2020 --- 10:45 17.3 46.5 5.7 26.5 54.500 04:12 11.6 250.0 0.0
07.04.2020 --- 10:48 17.6 47.6 6.3 27.9 54.800 04:15 14.9 280.0 0.0
07.04.2020 --- 10:51 17.8 46.4 6.2 28.4 55.100 04:17 18.2 295.0 0.0
07.04.2020 --- 10:54 17.8 46.9 6.3 28.4 55.100 04:20 17.7 300.0 0.0
07.04.2020 --- 10:57 17.8 46.4 6.2 28.8 55.800 04:24 22.9 290.0 0.0
07.04.2020 --- 11:00 17.8 46.4 6.2 29.6 56.000 04:27 17.4 305.0 0.0
07.04.2020 --- 11:03 18.0 47.4 6.7 30.1 56.700 04:30 14.0 300.0 0.0
07.04.2020 --- 11:06 18.0 46.3 6.3 30.1 57.300 04:32 11.6 270.0 0.0
07.04.2020 --- 11:09 18.3 46.2 6.6 30.8 57.300 04:35 13.3 275.0 0.0
07.04.2020 --- 11:12 18.4 46.0 6.6 30.5 57.800 04:39 14.7 330.0 0.0
07.04.2020 --- 11:15 18.5 45.9 6.6 30.9 57.900 04:42 10.2 320.0 0.0
07.04.2020 --- 11:18 18.8 44.5 6.5 31.4 58.100 04:45 9.6 290.0 0.0
07.04.2020 --- 11:21 18.9 45.7 6.9 31.3 58.500 04:47 17.9 300.0 0.0
07.04.2020 --- 11:24 19.0 46.4 7.3 31.5 58.500 04:50 17.9 300.0 0.0
07.04.2020 --- 11:27 19.2 46.2 7.4 31.8 59.400 04:54 15.4 315.0 0.0
07.04.2020 --- 11:30 19.3 45.8 7.3 31.8 59.500 04:57 15.4 315.0 0.0
07.04.2020 --- 11:33 19.2 45.7 7.2 31.8 59.800 05:00 23.5 340.0 0.0
07.04.2020 --- 11:36 19.3 46.1 7.4 30.6 60.000 05:02 18.9 300.0 0.0
07.04.2020 --- 11:39 19.3 46.1 7.4 31.1 59.900 05:05 24.0 310.0 0.0
07.04.2020 --- 11:42 19.3 46.6 7.6 30.8 60.000 05:09 20.6 320.0 0.0
07.04.2020 --- 11:45 19.5 46.6 7.8 30.8 60.300 05:12 18.9 330.0 0.0
07.04.2020 --- 11:48 19.4 46.7 7.7 31.0 60.300 05:15 17.2 315.0 0.0
07.04.2020 --- 11:51 19.4 46.7 7.7 31.6 60.800 05:17 15.1 315.0 0.0
07.04.2020 --- 11:54 19.4 46.1 7.5 31.6 61.000 05:20 19.8 320.0 0.0
07.04.2020 --- 11:57 19.4 46.1 7.5 31.1 61.500 05:24 19.8 320.0 0.0
07.04.2020 --- 12:00 19.6 46.5 7.8 31.2 61.300 05:27 19.8 305.0 0.0
07.04.2020 --- 12:03 19.7 47.2 8.1 31.2 61.300 05:30 21.4 300.0 0.0
07.04.2020 --- 12:06 19.9 46.6 8.1 30.8 62.400 05:32 21.4 300.0 0.0
07.04.2020 --- 12:09 19.8 47.1 8.2 30.6 62.400 05:35 23.8 305.0 0.0
07.04.2020 --- 12:12 19.9 45.9 7.9 30.6 62.500 05:39 19.6 320.0 0.0
07.04.2020 --- 12:15 19.9 47.9 8.5 30.6 62.800 05:42 20.5 315.0 0.0
07.04.2020 --- 12:18 19.9 47.9 8.5 29.0 62.800 05:45 20.5 315.0 0.0
07.04.2020 --- 12:21 20.0 46.6 8.2 25.5 62.800 05:47 24.4 315.0 0.0
07.04.2020 --- 12:24 20.0 46.3 8.1 28.3 62.700 05:50 22.1 305.0 0.0
07.04.2020 --- 12:27 20.0 46.3 8.1 28.3 63.500 05:54 28.5 330.0 0.0
07.04.2020 --- 12:30 20.1 48.2 8.8 29.5 63.700 05:57 26.0 310.0 0.0
07.04.2020 --- 12:33 20.2 48.3 8.9 30.2 63.600 06:00 22.0 320.0 0.0
07.04.2020 --- 12:36 20.2 47.0 8.5 30.8 64.000 06:02 21.1 320.0 0.0
07.04.2020 --- 12:39 20.7 48.2 9.4 31.5 64.000 06:05 11.6 335.0 0.0
07.04.2020 --- 12:42 20.6 45.9 8.6 32.1 63.700 06:09 11.9 300.0 0.0
07.04.2020 --- 12:45 20.9 46.9 9.1 32.0 63.700 06:12 13.8 340.0 0.0
07.04.2020 --- 12:48 21.1 47.5 9.5 32.2 64.000 06:15 8.8 350.0 0.0
07.04.2020 --- 12:51 21.4 49.6 10.4 32.2 64.000 06:17 11.3 355.0 0.0
07.04.2020 --- 12:54 21.3 48.0 9.9 32.0 64.500 06:20 13.4 5.0 0.0
07.04.2020 --- 12:57 21.3 48.0 9.9 32.4 64.500 06:24 14.8 340.0 0.0
07.04.2020 --- 13:00 21.2 49.0 10.1 30.5 64.500 06:27 16.7 5.0 0.0
07.04.2020 --- 13:03 21.4 48.5 10.1 30.6 63.900 06:30 12.1 10.0 0.0
07.04.2020 --- 13:06 21.6 49.9 10.7 30.9 64.300 06:32 12.1 10.0 0.0
07.04.2020 --- 13:09 21.6 49.9 10.7 31.8 64.300 06:35 14.6 65.0 0.0
07.04.2020 --- 13:12 22.1 48.2 10.6 32.1 64.300 06:39 14.3 50.0 0.0
07.04.2020 --- 13:15 22.3 48.8 11.0 32.3 64.100 06:42 14.1 5.0 0.0
07.04.2020 --- 13:18 22.3 48.8 11.0 31.9 63.500 06:45 10.9 345.0 0.0
07.04.2020 --- 13:21 21.8 49.4 10.7 30.8 63.300 06:47 16.9 350.0 0.0
07.04.2020 --- 13:24 22.0 48.9 10.8 31.6 63.400 06:50 16.9 350.0 0.0
07.04.2020 --- 13:27 22.0 48.6 10.7 30.8 63.700 06:54 13.3 75.0 0.0
07.04.2020 --- 13:30 22.3 48.2 10.8 30.8 63.400 06:57 15.6 75.0 0.0
07.04.2020 --- 13:33 22.3 48.2 10.8 30.9 63.400 07:00 16.1 25.0 0.0
07.04.2020 --- 13:36 22.3 48.2 10.8 30.9 63.900 07:02 17.7 40.0 0.0
07.04.2020 --- 13:39 22.5 47.4 10.8 30.5 63.900 07:05 16.6 45.0 0.0
07.04.2020 --- 13:42 22.8 48.6 11.4 30.4 63.900 07:09 16.4 35.0 0.0
07.04.2020 --- 13:45 22.5 49.1 11.3 30.1 63.900 07:12 13.2 30.0 0.0
07.04.2020 --- 13:48 22.5 48.9 11.2 29.6 63.900 07:15 15.6 345.0 0.0
07.04.2020 --- 13:51 22.2 48.4 10.8 29.6 62.600 07:17 8.1 30.0 0.0
07.04.2020 --- 13:54 22.2 48.4 10.8 29.5 62.200 07:20 13.1 0.0 0.0
07.04.2020 --- 13:57 22.4 48.4 11.0 29.1 62.100 07:24 13.5 5.0 0.0
07.04.2020 --- 14:00 22.6 47.9 11.0 29.3 62.100 07:27 13.7 20.0 0.0
07.04.2020 --- 14:03 22.5 48.0 10.9 28.1 61.800 07:30 6.3 50.0 0.0
07.04.2020 --- 14:06 22.5 48.0 10.9 28.3 61.500 07:32 16.3 30.0 0.0
07.04.2020 --- 14:09 22.5 48.6 11.1 28.3 61.300 07:35 15.5 25.0 0.0
07.04.2020 --- 14:12 22.5 48.1 11.0 28.1 60.900 07:39 9.5 0.0 0.0
07.04.2020 --- 14:15 22.5 48.1 11.0 28.0 60.800 07:42 10.6 0.0 0.0
07.04.2020 --- 14:18 22.5 47.6 10.8 27.5 60.600 07:45 13.6 35.0 0.0
07.04.2020 --- 14:21 22.5 47.6 10.8 27.3 60.300 07:47 10.8 60.0 0.0
07.04.2020 --- 14:24 22.3 49.1 11.1 27.1 60.300 07:50 16.3 10.0 0.0
07.04.2020 --- 14:27 22.5 50.0 11.6 27.5 60.300 07:54 16.7 45.0 0.0
07.04.2020 --- 14:30 22.4 47.8 10.8 27.1 59.700 07:57 16.7 45.0 0.0
07.04.2020 --- 14:33 22.5 47.5 10.8 27.1 59.200 08:00 16.7 45.0 0.0
07.04.2020 --- 14:36 22.7 47.7 11.0 27.0 58.700 08:03 7.4 45.0 0.0
07.04.2020 --- 14:39 23.0 48.9 11.7 27.0 58.500 08:05 18.1 40.0 0.0
07.04.2020 --- 14:42 22.9 50.1 12.0 26.5 57.300 08:09 13.3 45.0 0.0
07.04.2020 --- 14:45 22.9 48.9 11.6 26.1 57.400 08:11 17.6 60.0 0.0
07.04.2020 --- 14:48 22.8 49.8 11.8 26.1 57.900 08:15 13.3 45.0 0.0
07.04.2020 --- 14:51 22.9 50.1 12.0 25.9 57.800 08:18 12.1 50.0 0.0
07.04.2020 --- 14:54 22.9 50.1 12.0 25.1 57.500 08:20 21.8 70.0 0.0
07.04.2020 --- 14:57 22.8 49.9 11.8 25.1 57.500 08:24 24.3 40.0 0.0
07.04.2020 --- 15:00 23.1 48.0 11.5 25.1 56.800 08:26 10.6 30.0 0.0
07.04.2020 --- 15:03 23.2 48.4 11.7 25.2 56.800 08:30 11.5 35.0 0.0
07.04.2020 --- 15:06 23.1 50.3 12.2 25.1 56.000 08:33 21.3 40.0 0.0
07.04.2020 --- 15:09 23.2 50.6 12.4 25.2 57.300 08:35 20.5 45.0 0.0
07.04.2020 --- 15:12 23.2 50.7 12.4 24.9 58.000 08:39 16.3 50.0 0.0
07.04.2020 --- 15:15 23.2 50.8 12.4 24.6 41.200 08:41 17.5 65.0 0.0
07.04.2020 --- 15:18 23.2 50.8 12.4 23.0 31.000 08:41 12.6 45.0 0.0
07.04.2020 --- 15:21 22.5 51.4 12.0 22.6 23.500 08:41 17.4 50.0 0.0
07.04.2020 --- 15:24 22.1 52.4 11.9 22.6 25.600 08:41 17.5 40.0 0.0
07.04.2020 --- 15:27 21.5 53.5 11.7 22.6 14.000 08:41 13.8 45.0 0.0
07.04.2020 --- 15:30 21.5 53.5 11.7 20.0 14.000 08:41 19.6 45.0 0.0
07.04.2020 --- 15:33 21.2 54.3 11.6 20.0 28.500 08:41 17.8 40.0 0.0
07.04.2020 --- 15:36 21.0 55.1 11.6 20.6 49.800 08:45 13.6 30.0 0.0
07.04.2020 --- 15:39 21.6 54.9 12.1 21.0 49.800 08:48 17.8 50.0 0.0
07.04.2020 --- 15:42 21.9 52.8 11.8 21.0 49.800 08:50 21.0 75.0 0.0
07.04.2020 --- 15:45 21.9 52.8 11.8 21.0 50.200 08:54 19.2 60.0 0.0
07.04.2020 --- 15:48 22.2 51.0 11.6 20.8 50.200 08:56 19.0 65.0 0.0
07.04.2020 --- 15:51 21.9 51.5 11.5 19.8 50.200 09:00 21.3 40.0 0.0
07.04.2020 --- 15:54 21.8 51.5 11.4 20.0 48.400 09:03 18.6 70.0 0.0
07.04.2020 --- 15:57 21.8 51.1 11.2 20.0 47.600 09:05 19.9 45.0 0.0
07.04.2020 --- 16:00 21.9 50.3 11.1 19.8 47.100 09:09 20.1 60.0 0.0
07.04.2020 --- 16:03 22.0 51.3 11.5 19.8 47.100 09:11 17.7 50.0 0.0
07.04.2020 --- 16:06 21.9 50.1 11.0 19.8 45.800 09:15 20.3 60.0 0.0
07.04.2020 --- 16:09 21.9 50.1 11.0 19.8 45.600 09:18 16.0 60.0 0.0
07.04.2020 --- 16:12 21.8 51.0 11.2 19.8 45.300 09:20 19.0 35.0 0.0
07.04.2020 --- 16:15 22.0 51.2 11.5 19.3 45.000 09:24 19.1 50.0 0.0
07.04.2020 --- 16:18 21.8 49.3 10.7 19.1 44.200 09:26 15.8 50.0 0.0
07.04.2020 --- 16:21 21.8 50.1 11.0 19.0 43.700 09:30 20.4 60.0 0.0
07.04.2020 --- 16:24 21.8 49.0 10.6 18.6 43.100 09:33 18.1 40.0 0.0
07.04.2020 --- 16:27 21.6 50.3 10.8 18.5 42.200 09:35 19.0 45.0 0.0
07.04.2020 --- 16:30 21.7 50.5 11.0 18.3 41.900 09:39 15.3 50.0 0.0
07.04.2020 --- 16:33 21.7 50.5 11.0 18.3 40.800 09:41 21.7 50.0 0.0
07.04.2020 --- 16:36 21.3 48.8 10.1 18.1 40.800 09:45 23.6 45.0 0.0
07.04.2020 --- 16:39 21.3 50.6 10.6 18.1 39.900 09:48 23.6 45.0 0.0
07.04.2020 --- 16:42 21.4 49.7 10.5 18.1 39.300 09:50 18.1 35.0 0.0
07.04.2020 --- 16:45 21.4 49.7 10.5 18.0 39.300 09:54 21.3 55.0 0.0
07.04.2020 --- 16:48 21.4 49.7 10.5 17.9 38.600 09:56 22.0 55.0 0.0
07.04.2020 --- 16:51 21.2 50.2 10.4 17.8 37.700 10:00 22.5 35.0 0.0
07.04.2020 --- 16:54 21.2 50.2 10.4 17.7 37.300 10:03 18.6 40.0 0.0
07.04.2020 --- 16:57 21.0 49.7 10.1 17.5 36.900 10:05 19.4 50.0 0.0
07.04.2020 --- 17:00 20.9 51.2 10.5 17.4 35.700 10:09 15.7 40.0 0.0
07.04.2020 --- 17:03 20.8 50.9 10.3 17.2 35.100 10:11 15.3 55.0 0.0
07.04.2020 --- 17:06 20.7 51.5 10.4 17.1 34.300 10:15 16.2 35.0 0.0
07.04.2020 --- 17:09 20.7 50.4 10.0 16.9 33.700 10:18 18.4 35.0 0.0
07.04.2020 --- 17:12 20.6 50.9 10.1 16.9 33.200 10:20 19.7 35.0 0.0
07.04.2020 --- 17:15 20.6 50.8 10.1 16.6 33.000 10:24 19.9 40.0 0.0
07.04.2020 --- 17:18 20.5 50.5 9.9 16.6 33.000 10:26 16.3 20.0 0.0
07.04.2020 --- 17:21 20.4 50.2 9.7 16.6 33.000 10:30 16.3 20.0 0.0
07.04.2020 --- 17:24 20.3 51.4 10.0 16.3 33.000 10:33 19.5 25.0 0.0
07.04.2020 --- 17:27 20.3 51.4 10.0 16.2 29.900 10:35 15.3 50.0 0.0
07.04.2020 --- 17:30 20.3 51.2 9.9 16.2 29.300 10:39 15.3 50.0 0.0
07.04.2020 --- 17:33 20.3 50.6 9.7 16.1 29.300 10:41 18.8 35.0 0.0
07.04.2020 --- 17:36 20.2 50.4 9.6 16.1 28.100 10:45 17.5 35.0 0.0
07.04.2020 --- 17:39 20.0 51.0 9.6 15.7 28.100 10:48 17.8 40.0 0.0
07.04.2020 --- 17:42 19.9 51.3 9.6 15.5 26.300 10:50 18.9 50.0 0.0
07.04.2020 --- 17:45 19.9 51.3 9.6 15.5 25.500 10:54 14.7 35.0 0.0
07.04.2020 --- 17:48 19.8 52.2 9.7 15.3 24.800 10:56 12.8 25.0 0.0
07.04.2020 --- 17:51 19.8 51.2 9.4 15.3 24.200 11:00 17.7 35.0 0.0
07.04.2020 --- 17:54 19.7 51.4 9.4 15.0 23.700 11:03 21.0 35.0 0.0
07.04.2020 --- 17:57 19.6 51.5 9.3 15.0 23.700 11:05 21.0 35.0 0.0
07.04.2020 --- 18:00 19.6 51.7 9.4 15.0 22.700 11:09 21.0 35.0 0.0
07.04.2020 --- 18:03 19.4 52.0 9.3 14.6 21.800 11:11 18.3 40.0 0.0
07.04.2020 --- 18:06 19.4 52.0 9.3 14.6 21.000 11:15 17.6 25.0 0.0
07.04.2020 --- 18:09 19.3 50.9 8.9 14.5 20.500 11:18 12.1 25.0 0.0
07.04.2020 --- 18:12 19.3 50.9 8.9 14.3 19.900 11:20 15.5 30.0 0.0
07.04.2020 --- 18:15 19.3 50.9 8.9 14.3 19.900 11:24 15.5 30.0 0.0
07.04.2020 --- 18:18 19.0 52.3 9.0 14.3 18.400 11:26 15.5 30.0 0.0
07.04.2020 --- 18:21 18.9 53.4 9.2 14.0 17.800 11:30 15.5 30.0 0.0
07.04.2020 --- 18:24 18.8 52.5 8.9 14.0 16.700 11:33 22.0 50.0 0.0
07.04.2020 --- 18:27 18.7 52.1 8.7 14.0 16.100 11:35 17.1 30.0 0.0
07.04.2020 --- 18:30 18.6 53.2 8.9 13.6 15.500 11:39 19.7 30.0 0.0
07.04.2020 --- 18:33 18.3 54.1 8.9 13.4 15.500 11:41 13.9 40.0 0.0
07.04.2020 --- 18:36 18.3 54.1 8.9 13.0 14.200 11:45 14.5 40.0 0.0
07.04.2020 --- 18:39 17.9 54.0 8.5 13.0 13.500 11:48 16.2 35.0 0.0
07.04.2020 --- 18:42 17.8 54.8 8.6 13.0 12.800 11:50 17.8 25.0 0.0
07.04.2020 --- 18:45 17.8 54.8 8.6 12.2 11.500 11:54 17.3 30.0 0.0
07.04.2020 --- 18:48 17.6 55.5 8.6 12.1 10.700 11:56 12.5 25.0 0.0
07.04.2020 --- 18:51 17.5 57.3 9.0 12.0 10.100 12:00 11.8 30.0 0.0
07.04.2020 --- 18:54 17.3 56.0 8.4 12.0 9.390 12:03 14.8 30.0 0.0
07.04.2020 --- 18:57 17.3 56.7 8.6 11.8 8.650 12:05 13.3 35.0 0.0
07.04.2020 --- 19:00 17.1 57.4 8.6 11.6 7.970 12:09 11.6 45.0 0.0
07.04.2020 --- 19:03 16.9 58.1 8.6 11.5 7.320 12:11 11.8 35.0 0.0
07.04.2020 --- 19:06 16.8 59.0 8.8 11.3 6.680 12:15 8.5 40.0 0.0
07.04.2020 --- 19:09 16.6 59.3 8.6 11.3 5.400 12:18 13.0 40.0 0.0
07.04.2020 --- 19:12 16.5 59.0 8.5 11.1 4.770 12:20 13.0 40.0 0.0
07.04.2020 --- 19:15 16.3 60.2 8.6 11.0 4.240 12:24 13.6 35.0 0.0
07.04.2020 --- 19:18 16.3 60.2 8.6 11.0 3.710 12:26 10.5 40.0 0.0
07.04.2020 --- 19:21 15.8 60.7 8.2 11.0 3.710 12:30 9.4 30.0 0.0
07.04.2020 --- 19:24 15.8 60.7 8.2 10.7 3.710 12:33 11.3 30.0 0.0
07.04.2020 --- 19:27 15.7 61.1 8.2 10.6 1.700 12:33 11.3 30.0 0.0
07.04.2020 --- 19:30 15.5 61.3 8.1 10.5 1.700 12:35 14.8 30.0 0.0
07.04.2020 --- 19:33 15.4 61.8 8.1 10.5 1.260 12:35 13.3 30.0 0.0
07.04.2020 --- 19:36 15.2 62.0 8.0 10.5 1.070 12:35 11.6 35.0 0.0
07.04.2020 --- 19:39 15.0 62.7 8.0 10.1 1.070 12:35 14.5 35.0 0.0
07.04.2020 --- 19:42 14.8 63.1 7.9 10.1 1.070 12:35 14.5 35.0 0.0
07.04.2020 --- 19:45 14.7 63.3 7.8 9.8 1.070 12:35 14.5 35.0 0.0
07.04.2020 --- 19:48 14.6 64.0 7.9 9.6 0.368 12:35 12.5 30.0 0.0
07.04.2020 --- 19:51 14.3 64.8 7.8 9.6 0.284 12:35 9.4 30.0 0.0
07.04.2020 --- 19:54 14.1 65.1 7.6 9.3 0.217 12:35 9.5 30.0 0.0
07.04.2020 --- 19:57 13.9 65.2 7.5 9.3 0.217 12:35 10.6 35.0 0.0
07.04.2020 --- 20:00 13.8 65.1 7.4 9.3 0.217 12:35 13.0 35.0 0.0
07.04.2020 --- 20:03 13.7 65.6 7.4 8.9 0.217 12:35 13.6 30.0 0.0
07.04.2020 --- 20:06 13.7 65.6 7.4 8.8 0.042 12:35 13.6 30.0 0.0
07.04.2020 --- 20:09 13.7 65.3 7.3 8.8 0.016 12:35 16.0 25.0 0.0
07.04.2020 --- 20:12 13.7 65.0 7.2 8.8 0.011 12:35 16.0 25.0 0.0
07.04.2020 --- 20:15 13.8 64.7 7.3 8.8 0.217 12:35 13.0 30.0 0.0
07.04.2020 --- 20:18 13.8 64.9 7.3 8.7 0.002 12:35 13.0 30.0 0.0
07.04.2020 --- 20:21 13.8 64.9 7.3 8.7 0.000 12:35 11.4 30.0 0.0
07.04.2020 --- 20:24 13.8 65.3 7.4 8.7 0.000 12:35 12.1 35.0 0.0
07.04.2020 --- 20:27 13.8 65.3 7.4 8.6 0.000 12:35 11.9 40.0 0.0
07.04.2020 --- 20:30 13.6 66.0 7.4 8.8 0.000 12:35 7.8 70.0 0.0
07.04.2020 --- 20:33 13.6 66.3 7.4 8.5 0.000 12:35 11.0 60.0 0.0
07.04.2020 --- 20:36 13.5 66.3 7.3 8.6 0.000 12:35 12.5 65.0 0.0
07.04.2020 --- 20:39 13.5 66.3 7.3 8.6 0.000 12:35 10.6 65.0 0.0
07.04.2020 --- 20:42 13.3 67.1 7.3 8.6 0.000 12:35 9.3 50.0 0.0
07.04.2020 --- 20:45 13.3 67.1 7.3 8.4 0.000 12:35 10.9 55.0 0.0
07.04.2020 --- 20:48 13.3 67.1 7.3 8.3 0.000 12:35 10.9 55.0 0.0
07.04.2020 --- 20:51 13.2 67.7 7.4 8.3 0.000 12:35 9.5 65.0 0.0
07.04.2020 --- 20:54 13.2 67.7 7.4 8.3 0.000 12:35 9.5 65.0 0.0
07.04.2020 --- 20:57 13.0 68.4 7.3 8.1 0.000 12:35 8.9 70.0 0.0
07.04.2020 --- 21:00 12.9 68.6 7.3 8.0 0.000 12:35 13.6 60.0 0.0
07.04.2020 --- 21:03 12.9 68.6 7.3 8.3 0.000 12:35 11.2 65.0 0.0
07.04.2020 --- 21:06 12.9 68.7 7.3 8.1 0.000 12:35 13.1 70.0 0.0
07.04.2020 --- 21:09 12.8 68.8 7.2 8.1 0.000 12:35 11.5 70.0 0.0
07.04.2020 --- 21:12 12.8 68.8 7.2 8.0 0.000 12:35 15.3 70.0 0.0
07.04.2020 --- 21:15 12.8 68.8 7.2 8.1 0.000 12:35 20.1 70.0 0.0
07.04.2020 --- 21:18 12.7 68.3 7.0 8.1 0.000 12:35 16.5 65.0 0.0
07.04.2020 --- 21:21 12.8 67.9 7.0 8.0 0.000 12:35 20.8 70.0 0.0
07.04.2020 --- 21:24 12.8 67.9 7.0 8.4 0.000 12:35 14.6 75.0 0.0
07.04.2020 --- 21:27 12.7 68.0 7.0 8.4 0.000 12:35 17.6 65.0 0.0
07.04.2020 --- 21:30 12.7 68.0 7.0 8.0 0.000 12:35 15.8 65.0 0.0
07.04.2020 --- 21:33 12.6 67.5 6.8 8.1 0.000 12:35 17.1 65.0 0.0
07.04.2020 --- 21:36 12.6 67.1 6.7 8.0 0.000 12:35 18.5 75.0 0.0
07.04.2020 --- 21:39 12.6 67.1 6.7 7.9 0.000 12:35 15.1 70.0 0.0
07.04.2020 --- 21:42 12.6 67.1 6.7 7.8 0.000 12:35 19.3 70.0 0.0
07.04.2020 --- 21:45 12.3 66.7 6.3 7.6 0.000 12:35 17.5 60.0 0.0
07.04.2020 --- 21:48 12.2 66.6 6.2 7.6 0.000 12:35 15.1 65.0 0.0
07.04.2020 --- 21:51 12.1 66.5 6.1 7.5 0.000 12:35 13.7 60.0 0.0
07.04.2020 --- 21:54 12.1 66.5 6.1 7.3 0.000 12:35 14.3 60.0 0.0
07.04.2020 --- 21:57 11.9 66.1 5.8 7.3 0.000 12:35 14.3 60.0 0.0
07.04.2020 --- 22:00 11.8 65.7 5.6 7.3 0.000 12:35 14.7 60.0 0.0
07.04.2020 --- 22:03 11.7 65.0 5.3 7.3 0.000 12:35 13.4 65.0 0.0
07.04.2020 --- 22:06 11.7 65.0 5.3 7.3 0.000 12:35 16.8 65.0 0.0
07.04.2020 --- 22:09 11.6 64.4 5.1 7.1 0.000 12:35 14.5 60.0 0.0
07.04.2020 --- 22:12 11.6 64.4 5.1 7.1 0.000 12:35 14.5 60.0 0.0
07.04.2020 --- 22:15 11.4 63.5 4.7 6.9 0.000 12:35 10.5 60.0 0.0
07.04.2020 --- 22:18 11.4 63.5 4.7 6.9 0.000 12:35 11.8 60.0 0.0
07.04.2020 --- 22:21 11.3 62.9 4.5 7.0 0.000 12:35 11.6 65.0 0.0
07.04.2020 --- 22:24 11.2 63.3 4.5 6.8 0.000 12:35 8.9 70.0 0.0
07.04.2020 --- 22:27 11.0 63.7 4.4 6.5 0.000 12:35 8.9 70.0 0.0
07.04.2020 --- 22:30 10.9 63.8 4.3 6.5 0.000 12:35 10.7 70.0 0.0
07.04.2020 --- 22:33 10.8 64.4 4.4 6.5 0.000 12:35 7.5 65.0 0.0
07.04.2020 --- 22:36 10.8 64.4 4.4 6.5 0.000 12:35 7.5 65.0 0.0
07.04.2020 --- 22:39 10.8 64.4 4.4 6.5 0.000 12:35 10.8 70.0 0.0
07.04.2020 --- 22:42 10.8 64.4 4.4 6.2 0.000 12:35 10.8 70.0 0.0
07.04.2020 --- 22:45 10.8 64.4 4.4 6.3 0.000 12:35 7.3 60.0 0.0
07.04.2020 --- 22:48 10.8 64.4 4.4 6.3 0.000 12:35 7.3 60.0 0.0
07.04.2020 --- 22:51 10.2 65.3 4.0 6.2 0.000 12:35 7.3 60.0 0.0
07.04.2020 --- 22:54 10.1 66.0 4.0 6.2 0.000 12:35 6.9 70.0 0.0
07.04.2020 --- 22:57 9.9 66.2 3.9 6.2 0.000 12:35 6.9 50.0 0.0
07.04.2020 --- 23:00 9.8 66.3 3.8 6.0 0.000 12:35 5.0 60.0 0.0
07.04.2020 --- 23:03 9.7 66.8 3.8 5.8 0.000 12:35 5.0 60.0 0.0
07.04.2020 --- 23:06 9.5 66.8 3.6 5.7 0.000 12:35 5.2 60.0 0.0
07.04.2020 --- 23:09 9.4 67.1 3.6 5.6 0.000 12:35 7.6 60.0 0.0
07.04.2020 --- 23:12 9.4 67.0 3.6 5.7 0.000 12:35 7.6 60.0 0.0
07.04.2020 --- 23:15 9.3 66.5 3.4 5.7 0.000 12:35 7.4 60.0 0.0
07.04.2020 --- 23:18 9.2 66.8 3.4 5.7 0.000 12:35 4.2 60.0 0.0
07.04.2020 --- 23:21 9.2 66.8 3.4 5.5 0.000 12:35 6.7 60.0 0.0
07.04.2020 --- 23:24 9.2 66.8 3.4 5.5 0.000 12:35 6.7 60.0 0.0
07.04.2020 --- 23:27 9.2 65.4 3.1 5.5 0.000 12:35 8.9 50.0 0.0
07.04.2020 --- 23:30 9.2 65.4 3.1 5.3 0.000 12:35 8.9 50.0 0.0
07.04.2020 --- 23:33 9.2 65.4 3.1 5.4 0.000 12:35 10.0 65.0 0.0
07.04.2020 --- 23:36 9.3 63.6 2.8 5.4 0.000 12:35 10.0 75.0 0.0
07.04.2020 --- 23:39 9.3 63.6 2.8 5.5 0.000 12:35 6.6 95.0 0.0
07.04.2020 --- 23:42 9.5 62.9 2.8 5.4 0.000 12:35 9.5 85.0 0.0
07.04.2020 --- 23:45 9.5 63.0 2.8 5.2 0.000 12:35 15.0 85.0 0.0
07.04.2020 --- 23:48 9.5 63.0 2.8 5.2 0.000 12:35 9.9 80.0 0.0
07.04.2020 --- 23:51 9.5 63.0 2.8 5.6 0.000 12:35 8.7 80.0 0.0
07.04.2020 --- 23:54 9.9 61.1 2.8 5.6 0.000 12:35 9.8 80.0 0.0
07.04.2020 --- 23:57 9.9 60.5 2.6 5.6 0.000 12:35 9.9 80.0 0.0